sensor_id;sensor_type;location;lat;lon;timestamp;pressure;altitude;pressure_sealevel;temperature;humidity
6835;BME280;3455;42.150;24.734;2023-01-30T00:00:07;66188.09;;;6.73;57.83
6835;BME280;3455;42.150;24.734;2023-01-30T00:02:34;66171.16;;;6.35;59.18
6835;BME280;3455;42.150;24.734;2023-01-30T00:05:01;66135.63;;;6.26;58.62
6835;BME280;3455;42.150;24.734;2023-01-30T00:07:28;66163.06;;;6.35;58.38
6835;BME280;3455;42.150;24.734;2023-01-30T00:09:54;66178.66;;;6.42;58.64
6835;BME280;3455;42.150;24.734;2023-01-30T00:12:22;66166.22;;;6.47;58.02
6835;BME280;3455;42.150;24.734;2023-01-30T00:14:49;66172.91;;;6.37;58.22
6835;BME280;3455;42.150;24.734;2023-01-30T00:17:16;66199.16;;;6.69;57.57
6835;BME280;3455;42.150;24.734;2023-01-30T00:19:43;66155.13;;;6.32;58.29
6835;BME280;3455;42.150;24.734;2023-01-30T00:22:09;66187.16;;;6.45;58.19
6835;BME280;3455;42.150;24.734;2023-01-30T00:24:36;66161.56;;;6.49;57.99
6835;BME280;3455;42.150;24.734;2023-01-30T00:27:03;66149.03;;;6.42;58.46
6835;BME280;3455;42.150;24.734;2023-01-30T00:29:31;66191.75;;;6.49;58.46
6835;BME280;3455;42.150;24.734;2023-01-30T00:31:58;66192.50;;;6.54;57.92
6835;BME280;3455;42.150;24.734;2023-01-30T00:34:24;66191.94;;;6.72;57.36
6835;BME280;3455;42.150;24.734;2023-01-30T00:36:51;66178.13;;;6.59;58.28
6835;BME280;3455;42.150;24.734;2023-01-30T00:39:18;66137.94;;;6.28;58.74
6835;BME280;3455;42.150;24.734;2023-01-30T00:41:44;66164.16;;;6.42;58.82
6835;BME280;3455;42.150;24.734;2023-01-30T00:44:28;66155.91;;;6.31;58.68
6835;BME280;3455;42.150;24.734;2023-01-30T00:47:14;66165.97;;;6.31;58.96
6835;BME280;3455;42.150;24.734;2023-01-30T00:49:41;66182.53;;;6.41;59.13
6835;BME280;3455;42.150;24.734;2023-01-30T00:52:08;66134.97;;;6.57;57.84
6835;BME280;3455;42.150;24.734;2023-01-30T00:54:35;66191.34;;;6.53;58.72
6835;BME280;3455;42.150;24.734;2023-01-30T00:57:02;66186.19;;;6.42;58.79
6835;BME280;3455;42.150;24.734;2023-01-30T00:59:28;66226.56;;;6.53;58.41
6835;BME280;3455;42.150;24.734;2023-01-30T01:01:55;66187.38;;;6.43;58.97
6835;BME280;3455;42.150;24.734;2023-01-30T01:04:23;66164.59;;;6.56;58.75
6835;BME280;3455;42.150;24.734;2023-01-30T01:06:50;66203.09;;;6.61;58.38
6835;BME280;3455;42.150;24.734;2023-01-30T01:09:17;66189.34;;;6.60;58.46
6835;BME280;3455;42.150;24.734;2023-01-30T01:11:44;66125.13;;;6.12;60.50
6835;BME280;3455;42.150;24.734;2023-01-30T01:14:10;66127.34;;;5.96;60.99
6835;BME280;3455;42.150;24.734;2023-01-30T01:16:37;66154.97;;;6.03;60.39
6835;BME280;3455;42.150;24.734;2023-01-30T01:19:04;66100.56;;;5.81;61.03
6835;BME280;3455;42.150;24.734;2023-01-30T01:21:32;66132.03;;;6.18;60.52
6835;BME280;3455;42.150;24.734;2023-01-30T01:23:59;66097.84;;;6.08;60.12
6835;BME280;3455;42.150;24.734;2023-01-30T01:26:26;66164.81;;;6.05;60.63
6835;BME280;3455;42.150;24.734;2023-01-30T01:28:54;66128.13;;;6.19;60.68
6835;BME280;3455;42.150;24.734;2023-01-30T01:31:21;66146.91;;;5.96;60.92
6835;BME280;3455;42.150;24.734;2023-01-30T01:33:48;66129.63;;;6.05;60.05
6835;BME280;3455;42.150;24.734;2023-01-30T01:36:15;66168.22;;;6.15;59.72
6835;BME280;3455;42.150;24.734;2023-01-30T01:38:44;66130.44;;;6.21;60.39
6835;BME280;3455;42.150;24.734;2023-01-30T01:41:11;66157.38;;;6.16;60.36
6835;BME280;3455;42.150;24.734;2023-01-30T01:43:58;66167.66;;;6.14;60.62
6835;BME280;3455;42.150;24.734;2023-01-30T01:46:28;66129.13;;;6.16;60.64
6835;BME280;3455;42.150;24.734;2023-01-30T01:48:57;66164.94;;;6.16;59.35
6835;BME280;3455;42.150;24.734;2023-01-30T01:51:28;66138.28;;;6.31;58.95
6835;BME280;3455;42.150;24.734;2023-01-30T01:54:01;66210.91;;;6.53;58.76
6835;BME280;3455;42.150;24.734;2023-01-30T01:56:30;66165.97;;;6.31;59.04
6835;BME280;3455;42.150;24.734;2023-01-30T01:59:01;66139.47;;;6.07;59.11
6835;BME280;3455;42.150;24.734;2023-01-30T02:01:29;66117.47;;;6.01;58.67
6835;BME280;3455;42.150;24.734;2023-01-30T02:03:59;66200.16;;;6.41;58.29
6835;BME280;3455;42.150;24.734;2023-01-30T02:06:29;66137.28;;;6.34;57.86
6835;BME280;3455;42.150;24.734;2023-01-30T02:09:01;66169.13;;;6.24;58.40
6835;BME280;3455;42.150;24.734;2023-01-30T02:11:32;66137.69;;;6.37;58.26
6835;BME280;3455;42.150;24.734;2023-01-30T02:14:02;66166.88;;;6.40;58.06
6835;BME280;3455;42.150;24.734;2023-01-30T02:16:29;66139.19;;;6.16;57.43
6835;BME280;3455;42.150;24.734;2023-01-30T02:18:56;66140.81;;;6.31;57.51
6835;BME280;3455;42.150;24.734;2023-01-30T02:22:00;66158.41;;;6.31;57.80
6835;BME280;3455;42.150;24.734;2023-01-30T02:28:05;66149.91;;;6.52;57.29
6835;BME280;3455;42.150;24.734;2023-01-30T02:31:01;66130.16;;;6.12;56.25
6835;BME280;3455;42.150;24.734;2023-01-30T02:33:38;66192.69;;;6.77;55.44
6835;BME280;3455;42.150;24.734;2023-01-30T02:36:13;66165.94;;;6.13;56.99
6835;BME280;3455;42.150;24.734;2023-01-30T02:38:47;66161.91;;;6.09;56.68
6835;BME280;3455;42.150;24.734;2023-01-30T02:41:22;66122.22;;;6.10;57.55
6835;BME280;3455;42.150;24.734;2023-01-30T02:43:58;66235.28;;;6.30;57.42
6835;BME280;3455;42.150;24.734;2023-01-30T02:46:37;66143.53;;;6.29;57.08
6835;BME280;3455;42.150;24.734;2023-01-30T02:49:08;66100.47;;;6.19;57.25
6835;BME280;3455;42.150;24.734;2023-01-30T02:51:37;66119.25;;;5.96;57.35
6835;BME280;3455;42.150;24.734;2023-01-30T02:54:06;66106.81;;;6.00;58.14
6835;BME280;3455;42.150;24.734;2023-01-30T02:56:44;66171.09;;;6.17;57.36
6835;BME280;3455;42.150;24.734;2023-01-30T02:59:12;66172.28;;;6.18;57.13
6835;BME280;3455;42.150;24.734;2023-01-30T03:02:07;66156.78;;;6.16;57.14
6835;BME280;3455;42.150;24.734;2023-01-30T03:04:47;66113.66;;;5.89;57.78
6835;BME280;3455;42.150;24.734;2023-01-30T03:07:26;66113.78;;;5.75;58.68
6835;BME280;3455;42.150;24.734;2023-01-30T03:10:01;66065.28;;;5.45;59.06
6835;BME280;3455;42.150;24.734;2023-01-30T03:12:39;66091.03;;;5.89;58.91
6835;BME280;3455;42.150;24.734;2023-01-30T03:15:13;66119.13;;;5.84;59.02
6835;BME280;3455;42.150;24.734;2023-01-30T03:17:45;66143.22;;;6.19;57.59
6835;BME280;3455;42.150;24.734;2023-01-30T03:20:13;66089.06;;;5.71;58.58
6835;BME280;3455;42.150;24.734;2023-01-30T03:22:40;66034.50;;;5.52;58.17
6835;BME280;3455;42.150;24.734;2023-01-30T03:25:08;66137.69;;;6.12;57.68
6835;BME280;3455;42.150;24.734;2023-01-30T03:27:35;66162.84;;;6.37;55.82
6835;BME280;3455;42.150;24.734;2023-01-30T03:30:04;66128.47;;;6.04;56.68
6835;BME280;3455;42.150;24.734;2023-01-30T03:32:30;66096.81;;;6.18;57.07
6835;BME280;3455;42.150;24.734;2023-01-30T03:34:59;66129.28;;;6.20;56.40
6835;BME280;3455;42.150;24.734;2023-01-30T03:37:26;66152.34;;;5.92;56.25
6835;BME280;3455;42.150;24.734;2023-01-30T03:39:52;66128.09;;;6.01;57.17
6835;BME280;3455;42.150;24.734;2023-01-30T03:42:19;66149.09;;;6.11;56.49
6835;BME280;3455;42.150;24.734;2023-01-30T03:44:46;66129.72;;;6.16;55.54
6835;BME280;3455;42.150;24.734;2023-01-30T03:47:13;66138.63;;;6.15;56.57
6835;BME280;3455;42.150;24.734;2023-01-30T03:49:40;66187.47;;;6.05;55.55
6835;BME280;3455;42.150;24.734;2023-01-30T03:52:08;66160.53;;;6.35;54.77
6835;BME280;3455;42.150;24.734;2023-01-30T03:54:35;66142.66;;;6.19;55.25
6835;BME280;3455;42.150;24.734;2023-01-30T03:57:01;66227.19;;;6.22;55.45
6835;BME280;3455;42.150;24.734;2023-01-30T03:59:28;66128.13;;;6.19;54.73
6835;BME280;3455;42.150;24.734;2023-01-30T04:01:55;66114.69;;;6.10;55.83
6835;BME280;3455;42.150;24.734;2023-01-30T04:04:22;66102.78;;;5.97;55.96
6835;BME280;3455;42.150;24.734;2023-01-30T04:06:49;66135.22;;;6.06;56.20
6835;BME280;3455;42.150;24.734;2023-01-30T04:09:17;66095.41;;;5.77;56.80
6835;BME280;3455;42.150;24.734;2023-01-30T04:11:44;66169.59;;;6.14;55.89
6835;BME280;3455;42.150;24.734;2023-01-30T04:14:11;66117.91;;;5.90;56.03
6835;BME280;3455;42.150;24.734;2023-01-30T04:16:39;66154.88;;;5.85;56.40
6835;BME280;3455;42.150;24.734;2023-01-30T04:19:06;66101.63;;;5.71;56.48
6835;BME280;3455;42.150;24.734;2023-01-30T04:21:32;66097.59;;;5.68;55.59
6835;BME280;3455;42.150;24.734;2023-01-30T04:23:59;66111.13;;;5.95;55.38
6835;BME280;3455;42.150;24.734;2023-01-30T04:26:27;66140.91;;;6.17;54.59
6835;BME280;3455;42.150;24.734;2023-01-30T04:28:54;66144.91;;;6.03;54.89
6835;BME280;3455;42.150;24.734;2023-01-30T04:31:21;66049.75;;;5.99;54.98
6835;BME280;3455;42.150;24.734;2023-01-30T04:33:48;66140.59;;;6.08;55.09
6835;BME280;3455;42.150;24.734;2023-01-30T04:36:15;66144.78;;;5.67;55.55
6835;BME280;3455;42.150;24.734;2023-01-30T04:38:41;66068.63;;;5.62;55.90
6835;BME280;3455;42.150;24.734;2023-01-30T04:41:08;66093.34;;;5.66;56.24
6835;BME280;3455;42.150;24.734;2023-01-30T04:43:37;66109.94;;;5.94;55.81
6835;BME280;3455;42.150;24.734;2023-01-30T04:46:03;66130.31;;;5.85;55.89
6835;BME280;3455;42.150;24.734;2023-01-30T04:48:30;66128.75;;;5.89;55.67
6835;BME280;3455;42.150;24.734;2023-01-30T04:50:57;66080.56;;;5.68;56.34
6835;BME280;3455;42.150;24.734;2023-01-30T04:53:24;66109.28;;;6.07;55.73
6835;BME280;3455;42.150;24.734;2023-01-30T04:55:51;66067.78;;;5.70;56.29
6835;BME280;3455;42.150;24.734;2023-01-30T04:58:18;66121.91;;;6.00;56.00
6835;BME280;3455;42.150;24.734;2023-01-30T05:00:47;66106.34;;;5.87;55.90
6835;BME280;3455;42.150;24.734;2023-01-30T05:03:14;66113.59;;;6.02;56.06
6835;BME280;3455;42.150;24.734;2023-01-30T05:05:41;66101.66;;;5.64;55.86
6835;BME280;3455;42.150;24.734;2023-01-30T05:08:08;66080.22;;;5.65;55.76
6835;BME280;3455;42.150;24.734;2023-01-30T05:10:35;66105.59;;;5.81;55.75
6835;BME280;3455;42.150;24.734;2023-01-30T05:13:02;66115.63;;;6.13;54.09
6835;BME280;3455;42.150;24.734;2023-01-30T05:15:29;66117.66;;;5.99;54.79
6835;BME280;3455;42.150;24.734;2023-01-30T05:17:58;66086.13;;;5.51;55.49
6835;BME280;3455;42.150;24.734;2023-01-30T05:20:25;66061.81;;;5.42;55.95
6835;BME280;3455;42.150;24.734;2023-01-30T05:22:52;66092.41;;;5.88;55.00
6835;BME280;3455;42.150;24.734;2023-01-30T05:25:18;66058.69;;;5.73;54.78
6835;BME280;3455;42.150;24.734;2023-01-30T05:27:45;66155.25;;;5.88;54.86
6835;BME280;3455;42.150;24.734;2023-01-30T05:30:12;66082.44;;;5.74;54.29
6835;BME280;3455;42.150;24.734;2023-01-30T05:32:39;66105.50;;;5.70;54.25
6835;BME280;3455;42.150;24.734;2023-01-30T05:35:07;66038.06;;;5.17;55.72
6835;BME280;3455;42.150;24.734;2023-01-30T05:37:34;66114.13;;;5.78;55.37
6835;BME280;3455;42.150;24.734;2023-01-30T05:40:02;66053.13;;;5.66;55.64
6835;BME280;3455;42.150;24.734;2023-01-30T05:42:30;66065.28;;;5.45;55.43
6835;BME280;3455;42.150;24.734;2023-01-30T05:44:56;66114.50;;;5.80;54.47
6835;BME280;3455;42.150;24.734;2023-01-30T05:47:23;66105.59;;;5.57;55.38
6835;BME280;3455;42.150;24.734;2023-01-30T05:49:50;66125.28;;;5.85;54.32
6835;BME280;3455;42.150;24.734;2023-01-30T05:52:18;66084.13;;;5.58;55.93
6835;BME280;3455;42.150;24.734;2023-01-30T05:54:44;66146.00;;;5.86;54.25
6835;BME280;3455;42.150;24.734;2023-01-30T05:57:11;66116.50;;;5.73;54.93
6835;BME280;3455;42.150;24.734;2023-01-30T05:59:38;66105.94;;;5.59;55.30
6835;BME280;3455;42.150;24.734;2023-01-30T06:02:05;66073.50;;;5.57;55.35
6835;BME280;3455;42.150;24.734;2023-01-30T06:04:32;66123.84;;;5.75;55.26
6835;BME280;3455;42.150;24.734;2023-01-30T06:06:59;66105.34;;;5.90;54.38
6835;BME280;3455;42.150;24.734;2023-01-30T06:09:27;66146.25;;;6.27;53.90
6835;BME280;3455;42.150;24.734;2023-01-30T06:11:54;66128.66;;;6.02;54.07
6835;BME280;3455;42.150;24.734;2023-01-30T06:14:21;66147.44;;;6.28;53.00
6835;BME280;3455;42.150;24.734;2023-01-30T06:16:48;66128.44;;;5.79;54.48
6835;BME280;3455;42.150;24.734;2023-01-30T06:19:14;66142.66;;;6.19;53.63
6835;BME280;3455;42.150;24.734;2023-01-30T06:21:41;66117.38;;;5.83;54.45
6835;BME280;3455;42.150;24.734;2023-01-30T06:24:08;66122.50;;;6.01;54.28
6835;BME280;3455;42.150;24.734;2023-01-30T06:26:36;66169.53;;;6.45;53.75
6835;BME280;3455;42.150;24.734;2023-01-30T06:29:02;66167.91;;;6.06;54.58
6835;BME280;3455;42.150;24.734;2023-01-30T06:31:29;66143.97;;;6.24;54.56
6835;BME280;3455;42.150;24.734;2023-01-30T06:33:56;66112.13;;;6.16;53.38
6835;BME280;3455;42.150;24.734;2023-01-30T06:36:22;66164.09;;;6.24;53.36
6835;BME280;3455;42.150;24.734;2023-01-30T06:38:49;66110.22;;;6.35;53.57
6835;BME280;3455;42.150;24.734;2023-01-30T06:41:16;66131.84;;;6.14;53.71
6835;BME280;3455;42.150;24.734;2023-01-30T06:43:44;66143.97;;;6.24;53.04
6835;BME280;3455;42.150;24.734;2023-01-30T06:46:10;66247.00;;;6.13;53.21
6835;BME280;3455;42.150;24.734;2023-01-30T06:48:37;66054.53;;;6.08;53.32
6835;BME280;3455;42.150;24.734;2023-01-30T06:51:04;66147.44;;;6.03;53.60
6835;BME280;3455;42.150;24.734;2023-01-30T06:53:31;66106.97;;;5.56;54.88
6835;BME280;3455;42.150;24.734;2023-01-30T06:55:59;66106.34;;;5.87;54.59
6835;BME280;3455;42.150;24.734;2023-01-30T06:58:26;66072.59;;;5.47;55.17
6835;BME280;3455;42.150;24.734;2023-01-30T07:00:55;66135.25;;;5.99;54.48
6835;BME280;3455;42.150;24.734;2023-01-30T07:03:21;66155.59;;;6.21;53.07
6835;BME280;3455;42.150;24.734;2023-01-30T07:05:48;66096.03;;;5.95;54.00
6835;BME280;3455;42.150;24.734;2023-01-30T07:08:15;66178.75;;;6.29;54.37
6835;BME280;3455;42.150;24.734;2023-01-30T07:10:43;66128.56;;;6.15;54.00
6835;BME280;3455;42.150;24.734;2023-01-30T07:13:11;66171.75;;;6.36;54.17
6835;BME280;3455;42.150;24.734;2023-01-30T07:15:38;66128.84;;;6.07;54.71
6835;BME280;3455;42.150;24.734;2023-01-30T07:18:06;66190.03;;;6.48;53.48
6835;BME280;3455;42.150;24.734;2023-01-30T07:20:33;66170.59;;;6.35;53.93
6835;BME280;3455;42.150;24.734;2023-01-30T07:23:00;66195.91;;;6.39;53.44
6835;BME280;3455;42.150;24.734;2023-01-30T07:25:28;66113.31;;;5.86;55.22
6835;BME280;3455;42.150;24.734;2023-01-30T07:27:56;66184.09;;;6.62;52.84
6835;BME280;3455;42.150;24.734;2023-01-30T07:30:24;66145.94;;;6.17;54.01
6835;BME280;3455;42.150;24.734;2023-01-30T07:32:52;66176.53;;;6.62;53.21
6835;BME280;3455;42.150;24.734;2023-01-30T07:35:21;66200.78;;;6.35;53.80
6835;BME280;3455;42.150;24.734;2023-01-30T07:37:49;66195.09;;;6.66;53.03
6835;BME280;3455;42.150;24.734;2023-01-30T07:40:17;66207.69;;;6.66;53.21
6835;BME280;3455;42.150;24.734;2023-01-30T07:42:54;66236.50;;;6.49;53.96
6835;BME280;3455;42.150;24.734;2023-01-30T07:45:21;66153.03;;;6.28;53.68
6835;BME280;3455;42.150;24.734;2023-01-30T07:47:48;66121.34;;;6.00;54.68
6835;BME280;3455;42.150;24.734;2023-01-30T07:50:15;66161.13;;;6.53;53.59
6835;BME280;3455;42.150;24.734;2023-01-30T07:52:43;66193.38;;;6.64;53.40
6835;BME280;3455;42.150;24.734;2023-01-30T07:55:10;66118.50;;;6.15;54.64
6835;BME280;3455;42.150;24.734;2023-01-30T07:57:37;66190.50;;;6.61;53.47
6835;BME280;3455;42.150;24.734;2023-01-30T08:00:05;66163.56;;;6.42;53.33
6835;BME280;3455;42.150;24.734;2023-01-30T08:02:34;66195.44;;;6.50;53.64
6835;BME280;3455;42.150;24.734;2023-01-30T08:05:01;66179.41;;;6.22;53.88
6835;BME280;3455;42.150;24.734;2023-01-30T08:07:28;66198.56;;;6.69;53.47
6835;BME280;3455;42.150;24.734;2023-01-30T08:09:56;66158.31;;;6.19;53.44
6835;BME280;3455;42.150;24.734;2023-01-30T08:12:23;66204.94;;;6.92;52.86
6835;BME280;3455;42.150;24.734;2023-01-30T08:14:49;66212.84;;;6.95;52.63
6835;BME280;3455;42.150;24.734;2023-01-30T08:17:16;66212.16;;;7.08;51.79
6835;BME280;3455;42.150;24.734;2023-01-30T08:19:43;66191.84;;;6.85;51.72
6835;BME280;3455;42.150;24.734;2023-01-30T08:22:09;66213.13;;;6.86;51.84
6835;BME280;3455;42.150;24.734;2023-01-30T08:24:36;66246.78;;;6.71;52.54
6835;BME280;3455;42.150;24.734;2023-01-30T08:27:04;66287.09;;;7.14;50.80
6835;BME280;3455;42.150;24.734;2023-01-30T08:29:31;66216.19;;;6.93;51.91
6835;BME280;3455;42.150;24.734;2023-01-30T08:31:58;66271.88;;;7.27;50.91
6835;BME280;3455;42.150;24.734;2023-01-30T08:34:25;66265.91;;;7.24;49.68
6835;BME280;3455;42.150;24.734;2023-01-30T08:36:52;66227.56;;;7.17;50.48
6835;BME280;3455;42.150;24.734;2023-01-30T08:39:19;66183.13;;;6.84;51.51
6835;BME280;3455;42.150;24.734;2023-01-30T08:41:45;66192.38;;;6.68;50.97
6835;BME280;3455;42.150;24.734;2023-01-30T08:44:13;66175.28;;;6.75;51.84
6835;BME280;3455;42.150;24.734;2023-01-30T08:46:40;66257.94;;;7.04;51.71
6835;BME280;3455;42.150;24.734;2023-01-30T08:49:07;66246.69;;;7.02;51.13
6835;BME280;3455;42.150;24.734;2023-01-30T08:51:33;66213.13;;;6.86;50.42
6835;BME280;3455;42.150;24.734;2023-01-30T08:54:00;66243.72;;;7.31;50.11
6835;BME280;3455;42.150;24.734;2023-01-30T08:56:27;66206.91;;;6.67;50.83
6835;BME280;3455;42.150;24.734;2023-01-30T08:58:54;66194.69;;;6.70;52.17
6835;BME280;3455;42.150;24.734;2023-01-30T09:01:22;66198.75;;;6.91;51.57
6835;BME280;3455;42.150;24.734;2023-01-30T09:03:48;66230.81;;;6.79;50.98
6835;BME280;3455;42.150;24.734;2023-01-30T09:06:15;66225.75;;;6.61;52.85
6835;BME280;3455;42.150;24.734;2023-01-30T09:08:42;66260.28;;;7.24;50.80
6835;BME280;3455;42.150;24.734;2023-01-30T09:11:10;66234.00;;;7.16;50.47
6835;BME280;3455;42.150;24.734;2023-01-30T09:13:36;66157.38;;;6.41;51.83
6835;BME280;3455;42.150;24.734;2023-01-30T09:18:56;66241.56;;;7.34;50.47
6835;BME280;3455;42.150;24.734;2023-01-30T09:21:23;66264.34;;;7.45;50.33
6835;BME280;3455;42.150;24.734;2023-01-30T09:23:50;66186.09;;;6.55;52.17
6835;BME280;3455;42.150;24.734;2023-01-30T09:26:17;66267.13;;;7.36;49.68
6835;BME280;3455;42.150;24.734;2023-01-30T09:28:43;66193.56;;;6.87;51.21
6835;BME280;3455;42.150;24.734;2023-01-30T09:31:10;66200.66;;;6.73;50.97
6835;BME280;3455;42.150;24.734;2023-01-30T09:33:37;66181.06;;;6.55;51.85
6835;BME280;3455;42.150;24.734;2023-01-30T09:36:06;66187.78;;;6.63;52.15
6835;BME280;3455;42.150;24.734;2023-01-30T09:38:33;66399.34;;;7.37;50.44
6835;BME280;3455;42.150;24.734;2023-01-30T09:41:19;66309.72;;;7.88;49.74
6835;BME280;3455;42.150;24.734;2023-01-30T09:44:07;66295.56;;;7.66;49.58
6835;BME280;3455;42.150;24.734;2023-01-30T09:46:45;66305.59;;;7.91;49.57
6835;BME280;3455;42.150;24.734;2023-01-30T09:49:24;66250.47;;;7.15;51.30
6835;BME280;3455;42.150;24.734;2023-01-30T09:52:01;66241.19;;;7.13;51.16
6835;BME280;3455;42.150;24.734;2023-01-30T09:54:32;66265.28;;;7.66;49.93
6835;BME280;3455;42.150;24.734;2023-01-30T09:57:09;66220.84;;;7.33;51.18
6835;BME280;3455;42.150;24.734;2023-01-30T09:59:47;66207.78;;;6.77;52.36
6835;BME280;3455;42.150;24.734;2023-01-30T10:02:29;66128.09;;;6.26;52.95
6835;BME280;3455;42.150;24.734;2023-01-30T10:04:57;66193.72;;;6.91;51.15
6835;BME280;3455;42.150;24.734;2023-01-30T10:07:35;66193.88;;;6.96;50.89
6835;BME280;3455;42.150;24.734;2023-01-30T10:10:10;66234.03;;;6.91;51.55
6835;BME280;3455;42.150;24.734;2023-01-30T10:12:44;66251.50;;;7.29;50.65
6835;BME280;3455;42.150;24.734;2023-01-30T10:15:47;66210.63;;;6.86;51.80
6835;BME280;3455;42.150;24.734;2023-01-30T10:18:41;66270.34;;;7.66;49.48
6835;BME280;3455;42.150;24.734;2023-01-30T10:21:17;66325.19;;;7.72;50.36
6835;BME280;3455;42.150;24.734;2023-01-30T10:24:01;66331.50;;;8.03;48.95
6835;BME280;3455;42.150;24.734;2023-01-30T10:26:32;66282.50;;;7.52;49.24
6835;BME280;3455;42.150;24.734;2023-01-30T10:29:02;66264.50;;;7.50;49.68
6835;BME280;3455;42.150;24.734;2023-01-30T10:31:36;66265.50;;;7.64;49.39
6835;BME280;3455;42.150;24.734;2023-01-30T10:34:09;66319.88;;;8.17;48.55
6835;BME280;3455;42.150;24.734;2023-01-30T10:36:41;66323.91;;;8.21;47.55
6835;BME280;3455;42.150;24.734;2023-01-30T10:39:21;66356.28;;;8.25;47.63
6835;BME280;3455;42.150;24.734;2023-01-30T10:41:54;66199.50;;;7.32;47.76
6835;BME280;3455;42.150;24.734;2023-01-30T10:44:23;66175.28;;;6.75;49.86
6835;BME280;3455;42.150;24.734;2023-01-30T10:49:49;66336.31;;;8.23;47.81
6835;BME280;3455;42.150;24.734;2023-01-30T10:52:32;66371.78;;;8.52;46.01
6835;BME280;3455;42.150;24.734;2023-01-30T10:55:12;66373.09;;;8.15;47.89
6835;BME280;3455;42.150;24.734;2023-01-30T10:57:53;66329.84;;;8.12;47.79
6835;BME280;3455;42.150;24.734;2023-01-30T11:00:28;66298.09;;;8.02;47.99
6835;BME280;3455;42.150;24.734;2023-01-30T11:03:07;66389.03;;;8.74;46.30
6835;BME280;3455;42.150;24.734;2023-01-30T11:05:41;66384.09;;;8.61;46.69
6835;BME280;3455;42.150;24.734;2023-01-30T11:08:17;66325.91;;;8.85;45.82
6835;BME280;3455;42.150;24.734;2023-01-30T11:10:46;66382.09;;;8.68;46.54
6835;BME280;3455;42.150;24.734;2023-01-30T11:13:16;66381.44;;;8.74;46.12
6835;BME280;3455;42.150;24.734;2023-01-30T11:15:45;66400.91;;;8.87;45.73
6835;BME280;3455;42.150;24.734;2023-01-30T11:18:14;66318.56;;;8.11;47.14
6835;BME280;3455;42.150;24.734;2023-01-30T11:20:43;66354.66;;;8.34;47.53
6835;BME280;3455;42.150;24.734;2023-01-30T11:23:23;66440.19;;;9.04;45.88
6835;BME280;3455;42.150;24.734;2023-01-30T11:25:54;66469.00;;;9.54;44.36
6835;BME280;3455;42.150;24.734;2023-01-30T11:28:22;66495.22;;;9.93;43.43
6835;BME280;3455;42.150;24.734;2023-01-30T11:30:52;66529.09;;;10.07;43.25
6835;BME280;3455;42.150;24.734;2023-01-30T11:33:22;66490.78;;;9.87;44.03
6835;BME280;3455;42.150;24.734;2023-01-30T11:35:55;66487.34;;;9.84;44.15
6835;BME280;3455;42.150;24.734;2023-01-30T11:38:23;66506.81;;;10.14;43.74
6835;BME280;3455;42.150;24.734;2023-01-30T11:41:05;66433.59;;;9.54;43.86
6835;BME280;3455;42.150;24.734;2023-01-30T11:43:33;66404.75;;;8.92;45.99
6835;BME280;3455;42.150;24.734;2023-01-30T11:46:00;66400.94;;;8.69;46.50
6835;BME280;3455;42.150;24.734;2023-01-30T11:48:29;66404.91;;;8.97;46.69
6835;BME280;3455;42.150;24.734;2023-01-30T11:50:58;66341.38;;;8.23;46.57
6835;BME280;3455;42.150;24.734;2023-01-30T11:53:30;66354.94;;;8.26;45.25
6835;BME280;3455;42.150;24.734;2023-01-30T11:56:04;66336.31;;;8.23;43.50
6835;BME280;3455;42.150;24.734;2023-01-30T11:58:34;66405.91;;;8.57;41.99
6835;BME280;3455;42.150;24.734;2023-01-30T12:01:02;66340.53;;;8.31;40.65
6835;BME280;3455;42.150;24.734;2023-01-30T12:03:30;66311.94;;;7.96;41.43
6835;BME280;3455;42.150;24.734;2023-01-30T12:05:58;66333.38;;;8.09;42.16
6835;BME280;3455;42.150;24.734;2023-01-30T12:08:28;66407.50;;;8.72;40.92
6835;BME280;3455;42.150;24.734;2023-01-30T12:10:59;66424.41;;;9.10;40.19
6835;BME280;3455;42.150;24.734;2023-01-30T12:13:31;66381.31;;;8.87;39.94
6835;BME280;3455;42.150;24.734;2023-01-30T12:16:15;66356.97;;;8.36;40.87
6835;BME280;3455;42.150;24.734;2023-01-30T12:18:49;66283.31;;;7.87;41.52
6835;BME280;3455;42.150;24.734;2023-01-30T12:21:27;66330.25;;;8.08;41.08
6835;BME280;3455;42.150;24.734;2023-01-30T12:24:04;66332.13;;;8.14;41.32
6835;BME280;3455;42.150;24.734;2023-01-30T12:26:43;66311.25;;;8.27;40.60
6835;BME280;3455;42.150;24.734;2023-01-30T12:29:20;66355.16;;;8.24;41.04
6835;BME280;3455;42.150;24.734;2023-01-30T12:31:53;66269.97;;;7.64;42.25
6835;BME280;3455;42.150;24.734;2023-01-30T12:34:24;66354.94;;;8.26;41.03
6835;BME280;3455;42.150;24.734;2023-01-30T12:36:58;66333.72;;;8.11;41.26
6835;BME280;3455;42.150;24.734;2023-01-30T12:39:40;66347.69;;;7.92;41.00
6835;BME280;3455;42.150;24.734;2023-01-30T12:42:27;66302.56;;;7.84;42.13
6835;BME280;3455;42.150;24.734;2023-01-30T12:45:10;66318.56;;;7.93;41.69
6835;BME280;3455;42.150;24.734;2023-01-30T12:47:56;66346.13;;;8.31;41.28
6835;BME280;3455;42.150;24.734;2023-01-30T12:50:34;66377.03;;;8.68;41.07
6835;BME280;3455;42.150;24.734;2023-01-30T12:53:25;66414.84;;;8.56;41.46
6835;BME280;3455;42.150;24.734;2023-01-30T12:56:09;66313.97;;;8.07;41.45
6835;BME280;3455;42.150;24.734;2023-01-30T12:58:45;66287.44;;;7.84;41.55
6835;BME280;3455;42.150;24.734;2023-01-30T13:01:23;66260.03;;;7.68;41.62
6835;BME280;3455;42.150;24.734;2023-01-30T13:04:00;66307.91;;;7.93;41.48
6835;BME280;3455;42.150;24.734;2023-01-30T13:06:53;66374.44;;;8.56;41.25
6835;BME280;3455;42.150;24.734;2023-01-30T13:09:39;66337.91;;;8.19;41.21
6835;BME280;3455;42.150;24.734;2023-01-30T13:12:13;66271.50;;;8.03;43.14
6835;BME280;3455;42.150;24.734;2023-01-30T13:14:48;66318.56;;;8.11;43.37
6835;BME280;3455;42.150;24.734;2023-01-30T13:17:29;66305.97;;;8.29;42.48
6835;BME280;3455;42.150;24.734;2023-01-30T13:20:02;66333.31;;;8.33;41.93
6835;BME280;3455;42.150;24.734;2023-01-30T13:22:37;66369.94;;;8.39;41.95
6835;BME280;3455;42.150;24.734;2023-01-30T13:25:16;66302.72;;;8.06;41.80
6835;BME280;3455;42.150;24.734;2023-01-30T13:27:52;66291.03;;;7.73;42.71
6835;BME280;3455;42.150;24.734;2023-01-30T13:30:21;66263.19;;;7.62;42.26
6835;BME280;3455;42.150;24.734;2023-01-30T13:32:52;66272.84;;;7.66;42.95
6835;BME280;3455;42.150;24.734;2023-01-30T13:35:24;66242.38;;;7.08;43.30
6835;BME280;3455;42.150;24.734;2023-01-30T13:37:55;66226.69;;;7.07;43.82
6835;BME280;3455;42.150;24.734;2023-01-30T13:40:25;66255.56;;;7.51;42.33
6835;BME280;3455;42.150;24.734;2023-01-30T13:42:57;66273.16;;;7.75;42.38
6835;BME280;3455;42.150;24.734;2023-01-30T13:45:29;66305.19;;;7.95;42.23
6835;BME280;3455;42.150;24.734;2023-01-30T13:48:08;66297.09;;;7.88;41.97